createdAt,value
2023-03-26T00:01:02.857Z,88956.81
2023-03-26T00:03:29.793Z,88962.53
2023-03-26T00:06:11.385Z,88962.13
2023-03-26T00:08:39.768Z,88956.81
2023-03-26T00:11:09.155Z,88952.00
2023-03-26T00:13:36.532Z,88954.69
2023-03-26T00:16:04.210Z,88931.75
2023-03-26T00:18:35.515Z,88944.56
2023-03-26T00:21:05.394Z,88942.88
2023-03-26T00:23:34.302Z,88939.97
2023-03-26T00:26:02.861Z,88938.47
2023-03-26T00:28:30.159Z,88944.22
2023-03-26T00:31:03.031Z,88935.97
2023-03-26T00:33:30.199Z,88934.06
2023-03-26T00:35:59.254Z,88944.13
2023-03-26T00:38:27.469Z,88931.56
2023-03-26T00:40:59.748Z,88937.28
2023-03-26T00:43:26.625Z,88940.69
2023-03-26T00:45:55.307Z,88937.53
2023-03-26T00:48:31.521Z,88937.44
2023-03-26T00:51:01.349Z,88938.09
2023-03-26T00:53:28.257Z,88944.44
2023-03-26T00:55:55.352Z,88931.03
2023-03-26T00:58:22.426Z,88935.88
2023-03-26T01:00:58.255Z,88923.88
2023-03-26T01:03:28.349Z,88933.53
2023-03-26T01:06:00.374Z,88943.19
2023-03-26T01:08:41.817Z,88944.34
2023-03-26T01:11:22.677Z,88943.34
2023-03-26T01:14:20.286Z,88929.84
2023-03-26T01:16:53.907Z,88930.78
2023-03-26T01:19:45.392Z,88924.03
2023-03-26T01:22:19.025Z,88933.94
2023-03-26T01:24:46.587Z,88932.81
2023-03-26T01:27:33.823Z,88930.06
2023-03-26T01:30:09.399Z,88938.19
2023-03-26T01:33:03.855Z,88926.81
2023-03-26T01:35:55.222Z,88926.06
2023-03-26T01:38:49.248Z,88930.97
2023-03-26T01:41:26.915Z,88923.59
2023-03-26T01:44:04.295Z,88929.03
2023-03-26T01:46:34.050Z,88916.47
2023-03-26T01:49:02.025Z,88940.69
2023-03-26T01:51:32.299Z,88938.41
2023-03-26T01:54:04.069Z,88937.13
2023-03-26T01:56:52.788Z,88940.63
2023-03-26T02:00:02.582Z,88921.53
2023-03-26T02:03:12.656Z,88931.69
2023-03-26T02:05:45.190Z,88932.28
2023-03-26T02:08:18.673Z,88928.03
2023-03-26T02:10:50.096Z,88931.09
2023-03-26T02:13:17.200Z,88929.44
2023-03-26T02:16:04.724Z,88942.06
2023-03-26T02:18:31.710Z,88945.13
2023-03-26T02:20:58.527Z,88943.59
2023-03-26T02:23:25.384Z,88936.00
2023-03-26T02:25:52.853Z,88933.97
2023-03-26T02:28:20.130Z,88934.47
2023-03-26T02:30:47.052Z,88950.56
2023-03-26T02:33:14.012Z,88940.38
2023-03-26T02:35:41.704Z,88943.00
2023-03-26T02:38:08.917Z,88929.59
2023-03-26T02:40:35.781Z,88937.84
2023-03-26T02:43:02.599Z,88945.41
2023-03-26T02:45:29.543Z,88936.72
2023-03-26T02:47:56.461Z,88943.34
2023-03-26T02:50:23.415Z,88949.41
2023-03-26T02:52:50.525Z,88946.59
2023-03-26T02:55:17.462Z,88944.97
2023-03-26T02:57:44.553Z,88945.78
2023-03-26T03:00:11.946Z,88946.88
2023-03-26T03:02:39.035Z,88950.06
2023-03-26T03:05:06.314Z,88953.88
2023-03-26T03:07:33.193Z,88948.34
2023-03-26T03:10:00.164Z,88957.44
2023-03-26T03:12:26.975Z,88961.50
2023-03-26T03:14:53.977Z,88959.53
2023-03-26T03:17:23.843Z,88970.25
2023-03-26T03:19:50.698Z,88961.44
2023-03-26T03:22:17.686Z,88959.41
2023-03-26T03:24:44.618Z,88954.91
2023-03-26T03:27:11.509Z,88957.25
2023-03-26T03:29:39.159Z,88956.44
2023-03-26T03:32:06.058Z,88951.16
2023-03-26T03:34:32.914Z,88954.41
2023-03-26T03:36:59.832Z,88947.03
2023-03-26T03:39:26.746Z,88941.97
2023-03-26T03:41:53.695Z,88944.78
2023-03-26T03:44:20.781Z,88947.16
2023-03-26T03:46:47.636Z,88946.31
2023-03-26T03:49:14.484Z,88949.25
2023-03-26T03:51:41.510Z,88952.44
2023-03-26T03:54:08.478Z,88954.09
2023-03-26T03:56:35.402Z,88943.59
2023-03-26T03:59:02.477Z,88945.69
2023-03-26T04:01:29.778Z,88941.31
2023-03-26T04:03:57.840Z,88956.25
2023-03-26T04:06:25.610Z,88952.81
2023-03-26T04:08:52.694Z,88965.09
2023-03-26T04:11:19.573Z,88968.28
2023-03-26T04:13:46.551Z,88969.03
2023-03-26T04:16:13.441Z,88960.69
2023-03-26T04:18:40.559Z,88963.28
2023-03-26T04:21:08.068Z,88961.72
2023-03-26T04:23:35.409Z,88971.75
2023-03-26T04:26:05.411Z,88966.50
2023-03-26T04:28:44.680Z,88967.28
2023-03-26T04:31:14.309Z,88966.34
2023-03-26T04:33:43.859Z,88962.03
2023-03-26T04:36:12.040Z,88967.47
2023-03-26T04:38:47.125Z,88972.25
2023-03-26T04:41:15.277Z,88973.03
2023-03-26T04:43:42.346Z,88967.56
2023-03-26T04:46:10.041Z,88970.69
2023-03-26T04:48:37.652Z,88977.63
2023-03-26T04:51:05.388Z,88981.16
2023-03-26T04:53:32.313Z,88968.13
2023-03-26T04:56:29.001Z,88981.06
2023-03-26T04:58:59.991Z,88973.56
2023-03-26T05:01:27.294Z,88975.97
2023-03-26T05:03:55.434Z,88975.44
2023-03-26T05:06:22.435Z,88970.31
2023-03-26T05:08:49.316Z,88970.72
2023-03-26T05:11:16.233Z,88967.59
2023-03-26T05:13:45.385Z,88975.41
2023-03-26T05:16:12.319Z,88976.41
2023-03-26T05:18:39.762Z,88970.59
2023-03-26T05:21:06.935Z,88977.63
2023-03-26T05:23:33.846Z,88985.63
2023-03-26T05:26:00.803Z,88971.59
2023-03-26T05:28:27.644Z,88975.25
2023-03-26T05:30:55.078Z,88977.38
2023-03-26T05:33:22.661Z,88979.06
2023-03-26T05:36:00.647Z,88987.59
2023-03-26T05:38:29.714Z,88985.91
2023-03-26T05:41:04.309Z,88978.41
2023-03-26T05:43:31.451Z,88982.50
2023-03-26T05:45:58.767Z,88977.88
2023-03-26T05:48:27.100Z,88980.06
2023-03-26T05:50:56.941Z,88989.28
2023-03-26T05:53:26.131Z,88989.06
2023-03-26T05:55:53.744Z,88987.13
2023-03-26T05:58:20.944Z,88991.00
2023-03-26T06:00:47.937Z,88984.41
2023-03-26T06:03:15.404Z,88986.78
2023-03-26T06:05:42.667Z,88991.38
2023-03-26T06:08:09.492Z,88987.44
2023-03-26T06:10:38.673Z,88990.59
2023-03-26T06:13:05.960Z,88973.28
2023-03-26T06:15:32.840Z,88985.16
2023-03-26T06:17:59.927Z,88979.97
2023-03-26T06:20:27.007Z,88974.34
2023-03-26T06:22:53.915Z,88993.88
2023-03-26T06:25:20.946Z,88976.63
2023-03-26T06:27:47.961Z,88980.75
2023-03-26T06:30:15.944Z,88986.47
2023-03-26T06:32:42.733Z,88986.88
2023-03-26T06:35:10.386Z,88982.56
2023-03-26T06:37:37.801Z,88989.09
2023-03-26T06:40:05.336Z,88993.44
2023-03-26T06:43:07.042Z,89007.81
2023-03-26T06:45:19.151Z,89001.22
2023-03-26T06:47:46.335Z,88994.91
2023-03-26T06:50:13.382Z,88994.59
2023-03-26T06:52:40.431Z,88990.38
2023-03-26T06:55:07.686Z,88990.50
2023-03-26T06:57:34.664Z,88984.16
2023-03-26T07:00:01.516Z,88990.94
2023-03-26T07:02:28.627Z,88983.72
2023-03-26T07:04:55.452Z,88997.25
2023-03-26T07:07:22.753Z,88987.69
2023-03-26T07:09:49.722Z,88983.38
2023-03-26T07:12:16.825Z,88987.66
2023-03-26T07:14:43.651Z,88977.63
2023-03-26T07:17:28.605Z,88974.69
2023-03-26T07:19:55.542Z,88982.28
2023-03-26T07:22:24.657Z,88977.44
2023-03-26T07:24:51.878Z,88974.53
2023-03-26T07:27:36.259Z,88976.53
2023-03-26T07:30:14.923Z,88973.00
2023-03-26T07:32:59.561Z,88973.09
2023-03-26T07:35:54.580Z,88969.59
2023-03-26T07:39:11.944Z,88965.81
2023-03-26T07:42:09.534Z,88959.13
2023-03-26T07:44:39.087Z,88954.44
2023-03-26T07:47:17.770Z,88961.59
2023-03-26T07:49:44.899Z,88956.19
2023-03-26T07:52:12.052Z,88947.16
2023-03-26T07:54:39.308Z,88949.13
2023-03-26T07:57:22.998Z,88943.22
2023-03-26T08:00:18.070Z,88947.69
2023-03-26T08:02:50.819Z,88944.06
2023-03-26T08:05:30.582Z,88945.66
2023-03-26T08:08:33.455Z,88936.63
2023-03-26T08:11:07.906Z,88944.31
2023-03-26T08:13:48.425Z,88927.03
2023-03-26T08:16:32.442Z,88928.94
2023-03-26T08:19:17.857Z,88924.03
2023-03-26T08:21:55.770Z,88919.66
2023-03-26T08:25:04.101Z,88905.00
2023-03-26T08:27:48.226Z,88908.19
2023-03-26T08:30:21.990Z,88922.53
2023-03-26T08:32:57.957Z,88919.47
2023-03-26T08:35:27.440Z,88917.25
2023-03-26T08:37:54.872Z,88923.25
2023-03-26T08:40:58.551Z,88919.00
2023-03-26T08:43:55.115Z,88914.34
2023-03-26T08:46:34.645Z,88908.38
2023-03-26T08:49:10.306Z,88910.94
2023-03-26T08:52:16.375Z,88907.69
2023-03-26T08:54:57.319Z,88904.22
2023-03-26T08:58:05.852Z,88909.44
2023-03-26T09:00:38.396Z,88907.34
2023-03-26T09:03:12.851Z,88904.81
2023-03-26T09:06:19.202Z,88900.59
2023-03-26T09:09:18.932Z,88895.81
2023-03-26T09:12:20.484Z,88889.94
2023-03-26T09:15:18.523Z,88897.72
2023-03-26T09:18:09.369Z,88894.13
2023-03-26T09:21:06.638Z,88885.59
2023-03-26T09:24:00.311Z,88888.03
2023-03-26T09:26:41.248Z,88892.50
2023-03-26T09:29:45.418Z,88884.69
2023-03-26T09:32:47.502Z,88884.19
2023-03-26T09:35:50.390Z,88876.09
2023-03-26T09:38:37.037Z,88890.94
2023-03-26T09:41:41.583Z,88870.84
2023-03-26T09:44:33.698Z,88875.41
2023-03-26T09:47:24.444Z,88869.81
2023-03-26T09:50:20.896Z,88873.72
2023-03-26T09:52:56.785Z,88868.16
2023-03-26T09:55:49.878Z,88869.19
2023-03-26T09:58:40.914Z,88867.75
2023-03-26T10:01:11.884Z,88866.03
2023-03-26T10:04:05.101Z,88856.06
2023-03-26T10:07:03.472Z,88867.97
2023-03-26T10:09:36.115Z,88856.28
2023-03-26T10:12:13.778Z,88857.97
2023-03-26T10:14:52.349Z,88856.31
2023-03-26T10:17:39.089Z,88858.75
2023-03-26T10:20:24.147Z,88841.53
2023-03-26T10:23:33.556Z,88845.47
2023-03-26T10:26:08.608Z,88840.28
2023-03-26T10:29:06.170Z,88840.09
2023-03-26T10:31:51.767Z,88846.69
2023-03-26T10:34:30.820Z,88849.47
2023-03-26T10:37:08.420Z,88854.84
2023-03-26T10:39:51.026Z,88846.38
2023-03-26T10:42:52.342Z,88847.97
2023-03-26T10:45:36.365Z,88832.38
2023-03-26T10:48:24.303Z,88837.78
2023-03-26T10:51:15.588Z,88832.25
2023-03-26T10:53:54.982Z,88823.03
2023-03-26T10:56:44.403Z,88829.75
2023-03-26T10:59:16.981Z,88826.09
2023-03-26T11:02:10.511Z,88814.63
2023-03-26T11:05:03.995Z,88814.97
2023-03-26T11:07:39.684Z,88808.38
2023-03-26T11:10:14.205Z,88809.38
2023-03-26T11:12:44.975Z,88796.44
2023-03-26T11:15:26.418Z,88806.31
2023-03-26T11:18:18.675Z,88798.41
2023-03-26T11:21:18.946Z,88799.09
2023-03-26T11:24:05.165Z,88796.53
2023-03-26T11:26:51.444Z,88804.66
2023-03-26T11:29:42.734Z,88793.56
2023-03-26T11:32:22.432Z,88788.41
2023-03-26T11:35:06.243Z,88790.22
2023-03-26T11:37:58.288Z,88787.47
2023-03-26T11:40:35.845Z,88784.66
2023-03-26T11:43:12.295Z,88785.31
2023-03-26T11:45:46.275Z,88784.19
2023-03-26T11:48:22.439Z,88789.44
2023-03-26T11:50:55.725Z,88780.84
2023-03-26T11:53:27.526Z,88784.84
2023-03-26T11:56:28.646Z,88774.31
2023-03-26T11:59:01.626Z,88773.44
2023-03-26T12:01:44.555Z,88771.06
2023-03-26T12:04:15.095Z,88767.28
2023-03-26T12:07:28.630Z,88776.47
2023-03-26T12:10:18.559Z,88767.41
2023-03-26T12:12:48.028Z,88777.88
2023-03-26T12:15:21.069Z,88770.09
2023-03-26T12:17:51.113Z,88767.97
2023-03-26T12:20:24.080Z,88778.28
2023-03-26T12:22:53.172Z,88773.97
2023-03-26T12:25:22.776Z,88776.91
2023-03-26T12:27:57.613Z,88774.22
2023-03-26T12:30:30.748Z,88768.44
2023-03-26T12:33:00.435Z,88759.94
2023-03-26T12:35:30.044Z,88761.75
2023-03-26T12:38:25.682Z,88764.06
2023-03-26T12:44:43.391Z,88763.09
2023-03-26T12:44:46.701Z,88755.34
2023-03-26T12:47:58.863Z,88750.78
2023-03-26T12:50:13.432Z,88746.78
2023-03-26T12:53:02.301Z,88754.81
2023-03-26T12:55:42.576Z,88747.31
2023-03-26T12:58:34.029Z,88746.56
2023-03-26T13:01:19.212Z,88744.25
2023-03-26T13:04:18.913Z,88752.31
2023-03-26T13:07:01.830Z,88735.16
2023-03-26T13:10:08.768Z,88739.06
2023-03-26T13:13:01.421Z,88734.81
2023-03-26T13:15:59.218Z,88735.09
2023-03-26T13:18:44.605Z,88735.75
2023-03-26T13:21:16.150Z,88728.75
2023-03-26T13:24:27.956Z,88733.31
2023-03-26T13:27:35.428Z,88734.63
2023-03-26T13:30:17.223Z,88739.22
2023-03-26T13:33:04.600Z,88733.41
2023-03-26T13:35:49.888Z,88740.97
2023-03-26T13:38:43.216Z,88749.50
2023-03-26T13:41:44.047Z,88744.41
2023-03-26T13:44:22.563Z,88739.94
2023-03-26T13:46:55.394Z,88751.69
2023-03-26T13:49:28.319Z,88753.16
2023-03-26T13:52:07.403Z,88747.06
2023-03-26T13:54:44.818Z,88746.41
2023-03-26T13:57:27.668Z,88737.13
2023-03-26T14:00:11.027Z,88735.78
2023-03-26T14:02:39.965Z,88740.69
2023-03-26T14:05:15.943Z,88743.25
2023-03-26T14:07:45.754Z,88749.13
2023-03-26T14:10:18.631Z,88751.28
2023-03-26T14:12:52.728Z,88748.31
2023-03-26T14:15:29.018Z,88747.28
2023-03-26T14:18:22.990Z,88747.69
2023-03-26T14:21:25.993Z,88755.53
2023-03-26T14:24:08.109Z,88742.72
2023-03-26T14:26:56.222Z,88745.75
2023-03-26T14:29:31.004Z,88741.41
2023-03-26T14:32:06.935Z,88744.19
2023-03-26T14:34:55.170Z,88733.84
2023-03-26T14:37:28.424Z,88738.19
2023-03-26T14:40:23.052Z,88727.34
2023-03-26T14:43:08.173Z,88738.59
2023-03-26T14:46:00.992Z,88723.66
2023-03-26T14:49:00.297Z,88733.66
2023-03-26T14:51:58.384Z,88727.66
2023-03-26T14:54:29.964Z,88733.44
2023-03-26T14:57:09.342Z,88743.03
2023-03-26T14:59:39.488Z,88736.09
2023-03-26T15:02:47.630Z,88737.34
2023-03-26T15:05:29.432Z,88736.09
2023-03-26T15:08:17.510Z,88740.66
2023-03-26T15:11:21.859Z,88741.47
2023-03-26T15:14:26.521Z,88744.19
2023-03-26T15:17:17.670Z,88745.44
2023-03-26T15:20:18.751Z,88743.16
2023-03-26T15:22:59.978Z,88748.47
2023-03-26T15:25:26.886Z,88741.97
2023-03-26T15:28:08.723Z,88748.25
2023-03-26T15:30:50.872Z,88743.34
2023-03-26T15:33:48.684Z,88759.88
2023-03-26T15:36:40.553Z,88758.63
2023-03-26T15:39:59.588Z,88757.78
2023-03-26T15:43:06.482Z,88760.91
2023-03-26T15:46:11.640Z,88761.91
2023-03-26T15:49:06.772Z,88769.50
2023-03-26T15:51:51.702Z,88766.72
2023-03-26T15:54:38.187Z,88768.91
2023-03-26T15:57:38.326Z,88777.91
2023-03-26T16:00:24.200Z,88795.53
2023-03-26T16:03:12.764Z,88793.59
2023-03-26T16:06:13.675Z,88796.03
2023-03-26T16:09:02.296Z,88795.28
2023-03-26T16:11:59.872Z,88789.78
2023-03-26T16:14:35.832Z,88794.88
2023-03-26T16:17:05.307Z,88787.63
2023-03-26T16:19:59.197Z,88797.78
2023-03-26T16:23:02.335Z,88796.09
2023-03-26T16:25:36.143Z,88799.72
2023-03-26T16:28:28.687Z,88800.16
2023-03-26T16:31:36.932Z,88797.03
2023-03-26T16:34:05.700Z,88798.69
2023-03-26T16:36:38.865Z,88807.63
2023-03-26T16:39:05.760Z,88797.75
2023-03-26T16:41:44.796Z,88797.50
2023-03-26T16:44:26.763Z,88801.88
2023-03-26T16:47:01.856Z,88805.31
2023-03-26T16:50:08.469Z,88810.88
2023-03-26T16:53:01.833Z,88814.28
2023-03-26T16:55:36.706Z,88806.28
2023-03-26T16:58:25.581Z,88818.66
2023-03-26T17:01:34.796Z,88827.88
2023-03-26T17:04:06.129Z,88832.50
2023-03-26T17:07:04.075Z,88846.22
2023-03-26T17:10:09.362Z,88841.66
2023-03-26T17:12:51.956Z,88846.03
2023-03-26T17:15:26.882Z,88859.16
2023-03-26T17:18:24.808Z,88862.81
2023-03-26T17:21:10.850Z,88870.44
2023-03-26T17:24:05.919Z,88886.41
2023-03-26T17:27:02.134Z,88891.28
2023-03-26T17:29:32.689Z,88885.47
2023-03-26T17:32:12.449Z,88888.38
2023-03-26T17:34:40.118Z,88901.44
2023-03-26T17:37:11.893Z,88896.09
2023-03-26T17:39:42.112Z,88897.56
2023-03-26T17:42:19.623Z,88886.94
2023-03-26T17:44:50.031Z,88903.34
2023-03-26T17:47:31.538Z,88885.69
2023-03-26T17:50:25.074Z,88892.44
2023-03-26T17:53:06.355Z,88899.44
2023-03-26T17:55:39.688Z,88904.28
2023-03-26T17:58:20.810Z,88886.56
2023-03-26T18:00:53.060Z,88894.06
2023-03-26T18:03:58.376Z,88912.41
2023-03-26T18:07:06.909Z,88909.28
2023-03-26T18:09:58.846Z,88902.50
2023-03-26T18:13:09.736Z,88897.16
2023-03-26T18:16:13.243Z,88920.34
2023-03-26T18:18:57.558Z,88932.13
2023-03-26T18:21:45.974Z,88931.16
2023-03-26T18:24:28.842Z,88935.75
2023-03-26T18:27:03.355Z,88943.28
2023-03-26T18:29:32.869Z,88963.09
2023-03-26T18:32:12.798Z,88982.47
2023-03-26T18:34:50.943Z,88997.19
2023-03-26T18:37:32.731Z,89010.50
2023-03-26T18:39:59.754Z,89032.47
2023-03-26T18:42:29.819Z,89027.13
2023-03-26T18:44:59.901Z,89025.81
2023-03-26T18:47:32.472Z,89021.41
2023-03-26T18:50:03.045Z,89023.28
2023-03-26T18:52:33.334Z,89023.22
2023-03-26T18:55:17.612Z,89033.84
2023-03-26T18:57:44.935Z,89006.91
2023-03-26T19:00:47.276Z,88991.06
2023-03-26T19:03:20.146Z,88982.22
2023-03-26T19:05:47.609Z,88975.28
2023-03-26T19:08:17.151Z,88986.84
2023-03-26T19:10:46.069Z,88988.78
2023-03-26T19:13:16.061Z,88999.00
2023-03-26T19:15:49.052Z,89006.63
2023-03-26T19:18:25.868Z,88998.72
2023-03-26T19:21:01.611Z,88993.50
2023-03-26T19:23:41.291Z,88994.19
2023-03-26T19:26:11.014Z,88992.16
2023-03-26T19:28:40.579Z,88986.25
2023-03-26T19:31:36.685Z,88994.78
2023-03-26T19:34:12.696Z,88989.47
2023-03-26T19:37:02.440Z,88990.50
2023-03-26T19:39:45.185Z,88988.13
2023-03-26T19:42:24.057Z,88986.03
2023-03-26T19:44:53.351Z,88975.72
2023-03-26T19:47:31.923Z,88985.56
2023-03-26T19:50:24.539Z,88981.78
2023-03-26T19:53:17.516Z,88978.28
2023-03-26T19:55:59.821Z,88977.50
2023-03-26T19:58:27.864Z,88988.63
2023-03-26T20:00:55.098Z,88973.56
2023-03-26T20:03:27.604Z,88976.34
2023-03-26T20:05:54.547Z,88977.63
2023-03-26T20:08:21.464Z,88975.00
2023-03-26T20:10:49.451Z,88992.28
2023-03-26T20:13:17.589Z,88987.63
2023-03-26T20:16:08.126Z,88980.00
2023-03-26T20:18:35.857Z,88988.13
2023-03-26T20:21:09.203Z,89000.97
2023-03-26T20:23:36.124Z,88990.91
2023-03-26T20:26:03.397Z,88996.06
2023-03-26T20:28:38.689Z,89001.66
2023-03-26T20:31:25.723Z,89009.44
2023-03-26T20:33:54.984Z,89000.47
2023-03-26T20:36:34.215Z,89005.13
2023-03-26T20:39:06.273Z,89008.59
2023-03-26T20:41:34.443Z,89012.69
2023-03-26T20:44:01.970Z,89016.56
2023-03-26T20:46:31.261Z,89006.84
2023-03-26T20:48:59.057Z,89020.91
2023-03-26T20:51:26.106Z,89019.22
2023-03-26T20:53:53.435Z,89012.16
2023-03-26T20:56:20.943Z,89026.94
2023-03-26T20:58:50.665Z,89024.44
2023-03-26T21:01:21.843Z,89027.59
2023-03-26T21:03:52.384Z,89023.31
2023-03-26T21:06:19.655Z,89033.16
2023-03-26T21:08:47.330Z,89043.25
2023-03-26T21:11:27.191Z,89033.69
2023-03-26T21:14:23.165Z,89042.84
2023-03-26T21:16:50.545Z,89027.81
2023-03-26T21:19:18.887Z,89033.03
2023-03-26T21:21:59.827Z,89034.53
2023-03-26T21:24:49.606Z,89036.50
2023-03-26T21:27:29.844Z,89029.06
2023-03-26T21:29:57.497Z,89024.69
2023-03-26T21:32:24.830Z,89019.28
2023-03-26T21:34:58.820Z,89017.56
2023-03-26T21:37:27.155Z,89015.47
2023-03-26T21:39:54.393Z,89025.88
2023-03-26T21:42:21.993Z,89025.88
2023-03-26T21:44:49.145Z,89021.03
2023-03-26T21:47:16.361Z,89021.56
2023-03-26T21:49:43.609Z,89037.47
2023-03-26T21:52:15.285Z,89040.50
2023-03-26T21:54:43.259Z,89035.84
2023-03-26T21:57:22.589Z,89049.44
2023-03-26T21:59:56.993Z,89048.97
2023-03-26T22:02:41.870Z,89054.03
2023-03-26T22:05:19.070Z,89064.03
2023-03-26T22:07:55.027Z,89058.19
2023-03-26T22:10:22.349Z,89052.28
2023-03-26T22:12:49.646Z,89067.81
2023-03-26T22:15:16.796Z,89069.25
2023-03-26T22:17:43.890Z,89073.72
2023-03-26T22:20:13.753Z,89076.97
2023-03-26T22:22:42.224Z,89072.28
2023-03-26T22:25:09.553Z,89081.28
2023-03-26T22:27:44.039Z,89087.06
2023-03-26T22:30:13.727Z,89099.09
2023-03-26T22:32:40.755Z,89098.53
2023-03-26T22:35:08.184Z,89084.44
2023-03-26T22:37:35.333Z,89076.94
2023-03-26T22:40:02.299Z,89087.03
2023-03-26T22:42:29.219Z,89087.47
2023-03-26T22:44:56.119Z,89079.78
2023-03-26T22:47:23.140Z,89075.88
2023-03-26T22:49:50.069Z,89087.09
2023-03-26T22:52:17.167Z,89086.97
2023-03-26T22:54:43.962Z,89086.56
2023-03-26T22:57:10.882Z,89092.22
2023-03-26T22:59:38.016Z,89081.94
2023-03-26T23:02:05.005Z,89086.09
2023-03-26T23:04:32.411Z,89081.31
2023-03-26T23:06:59.625Z,89074.81
2023-03-26T23:09:26.587Z,89084.44
2023-03-26T23:11:53.501Z,89083.00
2023-03-26T23:14:20.657Z,89085.69
2023-03-26T23:16:48.139Z,89086.22
2023-03-26T23:19:15.044Z,89093.66
2023-03-26T23:21:42.125Z,89088.16
2023-03-26T23:24:09.256Z,89094.59
2023-03-26T23:26:49.714Z,89087.56
2023-03-26T23:29:17.935Z,89095.78
2023-03-26T23:31:44.911Z,89086.09
2023-03-26T23:34:11.931Z,89075.09
2023-03-26T23:36:38.951Z,89082.00
2023-03-26T23:39:05.976Z,89079.34
2023-03-26T23:41:32.838Z,89074.63
2023-03-26T23:43:59.907Z,89073.78
2023-03-26T23:46:28.522Z,89066.56
2023-03-26T23:48:55.461Z,89078.53
2023-03-26T23:51:22.560Z,89076.44
2023-03-26T23:53:49.701Z,89076.00
2023-03-26T23:56:17.487Z,89073.72
2023-03-26T23:58:44.617Z,89067.88
